createdAt,value
2018-10-01T00:00:10.430Z,9.10
2018-10-01T00:01:10.361Z,12.10
2018-10-01T00:02:10.338Z,9.20
2018-10-01T00:03:10.288Z,9.90
2018-10-01T00:04:10.234Z,9.80
2018-10-01T00:05:10.221Z,8.50
2018-10-01T00:06:10.193Z,9.60
2018-10-01T00:07:10.124Z,10.10
2018-10-01T00:08:10.086Z,10.30
2018-10-01T00:09:10.036Z,9.50
2018-10-01T00:10:10.003Z,10.70
2018-10-01T00:11:10.019Z,9.00
2018-10-01T00:12:09.939Z,9.80
2018-10-01T00:13:09.892Z,11.50
2018-10-01T00:14:09.846Z,10.90
2018-10-01T00:15:09.803Z,11.00
2018-10-01T00:16:09.759Z,12.40
2018-10-01T00:17:09.763Z,9.40
2018-10-01T00:18:09.706Z,9.50
2018-10-01T00:19:09.643Z,12.00
2018-10-01T00:20:09.615Z,10.10
2018-10-01T00:21:09.549Z,10.80
2018-10-01T00:22:09.566Z,11.00
2018-10-01T00:23:09.502Z,12.00
2018-10-01T00:24:09.427Z,11.20
2018-10-01T00:25:09.404Z,10.70
2018-10-01T00:26:09.354Z,9.70
2018-10-01T00:27:09.339Z,9.70
2018-10-01T00:28:09.276Z,10.80
2018-10-01T00:29:09.245Z,10.70
2018-10-01T00:30:09.188Z,10.50
2018-10-01T00:31:09.147Z,11.50
2018-10-01T00:32:09.134Z,9.50
2018-10-01T00:33:09.068Z,12.00
2018-10-01T00:34:09.036Z,10.00
2018-10-01T00:35:08.988Z,11.30
2018-10-01T00:36:08.948Z,12.50
2018-10-01T00:37:08.951Z,10.90
2018-10-01T00:38:08.955Z,10.90
2018-10-01T00:39:08.832Z,11.50
2018-10-01T00:40:08.793Z,10.40
2018-10-01T00:41:08.785Z,13.70
2018-10-01T00:42:08.702Z,9.20
2018-10-01T00:43:08.703Z,10.10
2018-10-01T00:44:08.647Z,10.90
2018-10-01T00:45:08.589Z,9.70
2018-10-01T00:46:08.574Z,12.90
2018-10-01T00:47:08.536Z,13.30
2018-10-01T00:48:08.468Z,14.40
2018-10-01T00:49:08.465Z,11.10
2018-10-01T00:50:08.386Z,10.70
2018-10-01T00:51:08.360Z,11.50
2018-10-01T00:52:08.304Z,11.40
2018-10-01T00:53:08.269Z,10.30
2018-10-01T00:54:08.234Z,9.30
2018-10-01T00:55:08.227Z,9.80
2018-10-01T00:56:08.200Z,12.40
2018-10-01T00:57:08.118Z,10.70
2018-10-01T00:58:08.079Z,12.90
2018-10-01T00:59:08.024Z,11.40
2018-10-01T01:00:07.986Z,12.20
2018-10-01T01:01:07.968Z,11.50
2018-10-01T01:02:07.893Z,10.50
2018-10-01T01:03:07.908Z,12.40
2018-10-01T01:04:07.842Z,11.20
2018-10-01T01:05:07.771Z,9.80
2018-10-01T01:06:07.764Z,10.60
2018-10-01T01:07:07.730Z,10.50
2018-10-01T01:08:07.647Z,13.70
2018-10-01T01:09:07.674Z,11.20
2018-10-01T01:10:07.588Z,12.70
2018-10-01T01:11:07.555Z,10.30
2018-10-01T01:12:07.581Z,11.70
2018-10-01T01:13:07.461Z,10.70
2018-10-01T01:14:07.419Z,11.80
2018-10-01T01:15:07.389Z,12.80
2018-10-01T01:16:07.327Z,12.10
2018-10-01T01:17:07.296Z,10.90
2018-10-01T01:18:07.293Z,13.50
2018-10-01T01:19:07.203Z,10.70
2018-10-01T01:20:07.175Z,10.70
2018-10-01T01:21:07.143Z,9.10
2018-10-01T01:22:07.128Z,10.70
2018-10-01T01:23:07.059Z,13.00
2018-10-01T01:24:07.059Z,12.30
2018-10-01T01:25:06.966Z,9.90
2018-10-01T01:26:06.969Z,11.50
2018-10-01T01:27:06.914Z,11.70
2018-10-01T01:28:06.848Z,13.60
2018-10-01T01:29:06.893Z,11.10
2018-10-01T01:30:06.759Z,9.80
2018-10-01T01:31:06.761Z,10.70
2018-10-01T01:32:06.704Z,9.90
2018-10-01T01:33:06.634Z,11.20
2018-10-01T01:34:06.617Z,9.50
2018-10-01T01:35:06.598Z,11.60
2018-10-01T01:36:06.527Z,13.50
2018-10-01T01:37:06.479Z,10.20
2018-10-01T01:38:16.937Z,10.60
2018-10-01T01:39:06.402Z,10.00
2018-10-01T01:40:06.362Z,9.50
2018-10-01T01:41:06.376Z,12.70
2018-10-01T01:42:06.282Z,10.10
2018-10-01T01:43:06.772Z,12.40
2018-10-01T01:44:06.198Z,12.10
2018-10-01T01:45:06.173Z,15.10
2018-10-01T01:46:06.129Z,10.50
2018-10-01T01:47:06.092Z,9.70
2018-10-01T01:48:06.033Z,11.30
2018-10-01T01:49:05.989Z,9.60
2018-10-01T01:50:05.939Z,12.70
2018-10-01T01:51:05.924Z,13.60
2018-10-01T01:52:05.956Z,11.70
2018-10-01T01:53:05.832Z,13.80
2018-10-01T01:54:05.842Z,12.60
2018-10-01T01:55:05.771Z,11.80
2018-10-01T01:56:05.719Z,12.20
2018-10-01T01:57:05.723Z,12.20
2018-10-01T01:58:05.646Z,11.60
2018-10-01T01:59:05.606Z,11.40
2018-10-01T02:00:05.540Z,10.30
2018-10-01T02:01:05.514Z,10.90
2018-10-01T02:02:05.483Z,11.00
2018-10-01T02:03:05.469Z,13.80
2018-10-01T02:04:05.374Z,13.40
2018-10-01T02:05:05.358Z,10.90
2018-10-01T02:06:05.329Z,12.10
2018-10-01T02:07:05.282Z,13.60
2018-10-01T02:08:05.216Z,11.60
2018-10-01T02:09:05.187Z,12.40
2018-10-01T02:10:05.138Z,12.60
2018-10-01T02:11:05.121Z,12.70
2018-10-01T02:12:05.061Z,13.30
2018-10-01T02:13:05.069Z,11.20
2018-10-01T02:14:04.980Z,12.20
2018-10-01T02:15:04.928Z,10.30
2018-10-01T02:16:04.914Z,12.60
2018-10-01T02:17:04.844Z,12.30
2018-10-01T02:18:04.798Z,10.50
2018-10-01T02:19:04.883Z,14.50
2018-10-01T02:20:04.736Z,13.00
2018-10-01T02:21:04.688Z,14.90
2018-10-01T02:22:04.646Z,13.40
2018-10-01T02:23:04.632Z,13.70
2018-10-01T02:24:04.567Z,12.70
2018-10-01T02:25:04.546Z,12.80
2018-10-01T02:26:04.502Z,11.10
2018-10-01T02:27:04.438Z,11.40
2018-10-01T02:28:04.396Z,12.00
2018-10-01T02:29:04.381Z,14.60
2018-10-01T02:30:04.343Z,13.30
2018-10-01T02:31:04.279Z,10.60
2018-10-01T02:32:04.246Z,13.60
2018-10-01T02:33:04.198Z,12.10
2018-10-01T02:34:04.182Z,13.50
2018-10-01T02:35:04.138Z,13.20
2018-10-01T02:36:04.090Z,12.30
2018-10-01T02:37:04.027Z,14.30
2018-10-01T02:38:04.031Z,11.60
2018-10-01T02:39:03.978Z,14.20
2018-10-01T02:40:03.929Z,15.40
2018-10-01T02:41:03.913Z,13.50
2018-10-01T02:42:03.829Z,12.30
2018-10-01T02:43:03.804Z,13.40
2018-10-01T02:44:03.795Z,14.10
2018-10-01T02:45:03.754Z,16.00
2018-10-01T02:46:03.738Z,14.40
2018-10-01T02:47:03.647Z,12.80
2018-10-01T02:48:03.643Z,15.40
2018-10-01T02:49:03.541Z,12.40
2018-10-01T02:50:03.515Z,13.50
2018-10-01T02:51:03.478Z,13.50
2018-10-01T02:52:03.462Z,15.00
2018-10-01T02:53:03.375Z,12.50
2018-10-01T02:54:03.346Z,14.50
2018-10-01T02:55:03.302Z,13.10
2018-10-01T02:56:03.286Z,14.10
2018-10-01T02:57:03.233Z,12.80
2018-10-01T02:58:03.248Z,14.00
2018-10-01T02:59:03.144Z,11.70
2018-10-01T03:00:03.114Z,15.40
2018-10-01T03:01:03.070Z,11.80
2018-10-01T03:02:03.026Z,13.90
2018-10-01T03:03:03.005Z,14.00
2018-10-01T03:04:02.954Z,14.00
2018-10-01T03:05:02.919Z,13.60
2018-10-01T03:06:02.856Z,13.60
2018-10-01T03:07:02.805Z,12.90
2018-10-01T03:08:02.806Z,13.00
2018-10-01T03:09:02.774Z,14.30
2018-10-01T03:10:02.694Z,13.40
2018-10-01T03:11:02.685Z,12.70
2018-10-01T03:12:02.616Z,14.50
2018-10-01T03:13:02.553Z,11.20
2018-10-01T03:14:02.542Z,11.80
2018-10-01T03:15:02.492Z,13.80
2018-10-01T03:16:02.446Z,16.70
2018-10-01T03:17:02.409Z,12.70
2018-10-01T03:18:02.362Z,13.90
2018-10-01T03:19:02.353Z,13.10
2018-10-01T03:20:02.308Z,14.40
2018-10-01T03:21:02.288Z,14.60
2018-10-01T03:22:02.196Z,14.00
2018-10-01T03:23:02.169Z,12.70
2018-10-01T03:24:02.112Z,9.60
2018-10-01T03:25:02.115Z,12.20
2018-10-01T03:26:02.065Z,11.20
2018-10-01T03:27:02.029Z,12.30
2018-10-01T03:28:01.963Z,12.60
2018-10-01T03:29:01.935Z,13.70
2018-10-01T03:30:01.879Z,11.30
2018-10-01T03:31:01.858Z,13.80
2018-10-01T03:32:01.827Z,10.30
2018-10-01T03:33:01.741Z,12.70
2018-10-01T03:34:01.747Z,13.60
2018-10-01T03:35:01.668Z,10.50
2018-10-01T03:36:01.656Z,11.70
2018-10-01T03:37:01.658Z,12.80
2018-10-01T03:38:01.575Z,11.20
2018-10-01T03:39:01.499Z,12.30
2018-10-01T03:40:01.498Z,12.40
2018-10-01T03:41:01.437Z,11.40
2018-10-01T03:42:01.406Z,13.60
2018-10-01T03:43:01.347Z,10.10
2018-10-01T03:44:01.299Z,13.40
2018-10-01T03:45:01.267Z,13.10
2018-10-01T03:46:01.277Z,12.80
2018-10-01T03:47:01.179Z,14.30
2018-10-01T03:48:01.163Z,10.70
2018-10-01T03:49:01.099Z,10.90
2018-10-01T03:50:01.087Z,12.80
2018-10-01T03:51:01.045Z,13.50
2018-10-01T03:52:00.960Z,12.10
2018-10-01T03:53:00.980Z,10.80
2018-10-01T03:54:00.894Z,11.30
2018-10-01T03:55:00.857Z,14.00
2018-10-01T03:56:00.880Z,14.00
2018-10-01T03:57:00.790Z,11.60
2018-10-01T03:58:00.762Z,10.70
2018-10-01T03:59:00.692Z,11.90
2018-10-01T04:00:00.669Z,10.90
2018-10-01T04:01:00.625Z,10.10
2018-10-01T04:02:00.585Z,15.00
2018-10-01T04:03:00.522Z,14.20
2018-10-01T04:04:00.474Z,13.30
2018-10-01T04:05:00.463Z,11.60
2018-10-01T04:06:00.417Z,14.40
2018-10-01T04:07:00.367Z,12.60
2018-10-01T04:08:00.334Z,11.40
2018-10-01T04:09:00.354Z,11.60
2018-10-01T04:10:00.256Z,13.20
2018-10-01T04:11:00.206Z,11.70
2018-10-01T04:12:00.165Z,11.00
2018-10-01T04:13:00.146Z,12.20
2018-10-01T04:14:00.080Z,10.60
2018-10-01T04:15:00.037Z,12.10
2018-10-01T04:16:00.013Z,15.10
2018-10-01T04:16:59.968Z,13.00
2018-10-01T04:17:59.895Z,11.90
2018-10-01T04:18:59.888Z,11.70
2018-10-01T04:19:59.866Z,12.30
2018-10-01T04:20:59.794Z,12.00
2018-10-01T04:21:59.789Z,14.10
2018-10-01T04:22:59.698Z,10.00
2018-10-01T04:23:59.703Z,9.20
2018-10-01T04:24:59.635Z,13.40
2018-10-01T04:25:59.576Z,10.60
2018-10-01T04:26:59.554Z,12.40
2018-10-01T04:27:59.527Z,10.30
2018-10-01T04:28:59.458Z,13.20
2018-10-01T04:29:59.413Z,13.30
2018-10-01T04:30:59.446Z,11.60
2018-10-01T04:31:59.335Z,12.50
2018-10-01T04:32:59.321Z,11.40
2018-10-01T04:33:59.285Z,10.80
2018-10-01T04:34:59.206Z,11.90
2018-10-01T04:35:59.197Z,12.10
2018-10-01T04:36:59.141Z,13.10
2018-10-01T04:37:59.124Z,11.20
2018-10-01T04:38:59.101Z,12.40
2018-10-01T04:39:59.060Z,11.50
2018-10-01T04:40:58.960Z,14.60
2018-10-01T04:41:58.933Z,10.80
2018-10-01T04:42:58.912Z,11.50
2018-10-01T04:43:58.880Z,11.60
2018-10-01T04:44:58.810Z,11.70
2018-10-01T04:45:58.764Z,12.40
2018-10-01T04:46:58.723Z,10.80
2018-10-01T04:47:58.673Z,14.40
2018-10-01T04:48:58.724Z,11.60
2018-10-01T04:49:58.597Z,12.70
2018-10-01T04:50:58.578Z,13.90
2018-10-01T04:51:58.535Z,12.70
2018-10-01T04:52:58.512Z,12.50
2018-10-01T04:53:58.467Z,10.40
2018-10-01T04:54:58.389Z,11.70
2018-10-01T04:55:58.367Z,12.80
2018-10-01T04:56:58.315Z,11.90
2018-10-01T04:57:58.389Z,12.50
2018-10-01T04:58:58.261Z,13.40
2018-10-01T04:59:58.216Z,11.50
2018-10-01T05:00:58.143Z,15.70
2018-10-01T05:01:58.101Z,14.10
2018-10-01T05:02:58.065Z,11.50
2018-10-01T05:03:58.070Z,13.40
2018-10-01T05:04:57.987Z,14.30
2018-10-01T05:05:57.978Z,13.50
2018-10-01T05:06:57.919Z,12.70
2018-10-01T05:07:57.864Z,11.50
2018-10-01T05:08:57.862Z,10.30
2018-10-01T05:10:11.993Z,11.70
2018-10-01T05:10:57.738Z,11.40
2018-10-01T05:11:57.714Z,10.40
2018-10-01T05:12:57.662Z,13.30
2018-10-01T05:13:57.619Z,9.50
2018-10-01T05:14:57.608Z,8.90
2018-10-01T05:15:57.549Z,14.60
2018-10-01T05:16:57.492Z,10.50
2018-10-01T05:17:57.478Z,10.90
2018-10-01T05:18:57.423Z,12.00
2018-10-01T05:19:57.369Z,10.50
2018-10-01T05:20:57.338Z,13.60
2018-10-01T05:21:57.282Z,12.80
2018-10-01T05:22:57.259Z,9.00
2018-10-01T05:23:57.229Z,11.90
2018-10-01T05:24:57.237Z,11.70
2018-10-01T05:25:57.122Z,10.40
2018-10-01T05:26:57.239Z,11.00
2018-10-01T05:27:57.039Z,11.20
2018-10-01T05:28:57.043Z,11.70
2018-10-01T05:29:56.974Z,9.10
2018-10-01T05:30:56.926Z,10.90
2018-10-01T05:31:56.871Z,10.30
2018-10-01T05:32:56.842Z,12.20
2018-10-01T05:33:56.824Z,11.70
2018-10-01T05:34:56.805Z,11.50
2018-10-01T05:35:56.736Z,11.60
2018-10-01T05:36:56.675Z,12.10
2018-10-01T05:37:56.707Z,11.30
2018-10-01T05:38:56.598Z,10.20
2018-10-01T05:39:56.596Z,8.80
2018-10-01T05:40:56.503Z,10.10
2018-10-01T05:41:56.475Z,10.70
2018-10-01T05:42:56.415Z,11.50
2018-10-01T05:43:56.391Z,13.00
2018-10-01T05:44:56.400Z,8.80
2018-10-01T05:45:56.308Z,9.30
2018-10-01T05:46:56.257Z,10.10
2018-10-01T05:47:56.225Z,12.10
2018-10-01T05:48:56.220Z,10.10
2018-10-01T05:49:56.180Z,13.30
2018-10-01T05:50:56.123Z,12.70
2018-10-01T05:51:56.064Z,10.50
2018-10-01T05:52:56.032Z,12.20
2018-10-01T05:53:55.965Z,13.30
2018-10-01T05:54:56.006Z,8.40
2018-10-01T05:55:55.929Z,9.60
2018-10-01T05:57:06.694Z,10.40
2018-10-01T05:57:55.889Z,10.90
2018-10-01T05:58:55.880Z,9.80
2018-10-01T05:59:55.778Z,7.80
2018-10-01T06:00:55.725Z,8.00
2018-10-01T06:01:55.664Z,9.00
2018-10-01T06:02:55.605Z,8.60
2018-10-01T06:03:55.598Z,9.90
2018-10-01T06:04:55.551Z,10.10
2018-10-01T06:05:55.476Z,10.50
2018-10-01T06:06:55.501Z,10.70
2018-10-01T06:07:55.406Z,9.70
2018-10-01T06:08:55.376Z,9.30
2018-10-01T06:09:55.332Z,9.60
2018-10-01T06:10:55.312Z,11.20
2018-10-01T06:11:55.357Z,9.80
2018-10-01T06:12:55.198Z,9.20
2018-10-01T06:13:55.190Z,8.40
2018-10-01T06:14:55.122Z,10.00
2018-10-01T06:15:55.100Z,8.60
2018-10-01T06:16:55.053Z,12.10
2018-10-01T06:17:55.042Z,9.70
2018-10-01T06:18:54.975Z,11.00
2018-10-01T06:19:54.916Z,10.70
2018-10-01T06:20:54.914Z,9.50
2018-10-01T06:21:54.864Z,8.00
2018-10-01T06:22:54.797Z,10.40
2018-10-01T06:23:54.746Z,9.10
2018-10-01T06:24:54.702Z,8.50
2018-10-01T06:25:54.669Z,9.20
2018-10-01T06:26:54.647Z,8.70
2018-10-01T06:27:54.676Z,9.60
2018-10-01T06:28:54.565Z,9.30
2018-10-01T06:29:54.512Z,11.20
2018-10-01T06:30:54.455Z,7.10
2018-10-01T06:31:54.437Z,7.10
2018-10-01T06:32:54.405Z,10.30
2018-10-01T06:33:54.381Z,7.40
2018-10-01T06:34:54.308Z,8.10
2018-10-01T06:35:54.272Z,6.60
2018-10-01T06:36:54.243Z,8.10
2018-10-01T06:37:54.198Z,7.70
2018-10-01T06:38:54.157Z,8.60
2018-10-01T06:39:54.107Z,9.80
2018-10-01T06:40:54.055Z,8.20
2018-10-01T06:41:54.120Z,8.70
2018-10-01T06:42:53.965Z,8.50
2018-10-01T06:43:53.929Z,7.80
2018-10-01T06:44:53.892Z,10.30
2018-10-01T06:45:53.845Z,11.60
2018-10-01T06:46:53.811Z,7.20
2018-10-01T06:47:53.795Z,7.60
2018-10-01T06:48:53.718Z,8.40
2018-10-01T06:50:07.073Z,11.30
2018-10-01T06:50:53.688Z,9.50
2018-10-01T06:51:53.603Z,8.50
2018-10-01T06:52:53.555Z,9.00
2018-10-01T06:53:53.534Z,9.00
2018-10-01T06:54:53.482Z,8.90
2018-10-01T06:55:53.431Z,9.10
2018-10-01T06:56:53.401Z,8.00
2018-10-01T06:57:53.384Z,7.50
2018-10-01T06:58:53.335Z,7.30
2018-10-01T06:59:53.292Z,7.80
2018-10-01T07:00:53.248Z,8.40
2018-10-01T07:01:53.197Z,8.10
2018-10-01T07:02:53.205Z,6.90
2018-10-01T07:03:53.139Z,8.10
2018-10-01T07:04:53.090Z,5.70
2018-10-01T07:05:53.216Z,8.30
2018-10-01T07:06:53.007Z,7.00
2018-10-01T07:07:52.967Z,8.00
2018-10-01T07:08:52.960Z,6.40
2018-10-01T07:09:52.898Z,8.80
2018-10-01T07:10:52.859Z,5.70
2018-10-01T07:11:52.825Z,7.70
2018-10-01T07:12:52.775Z,6.70
2018-10-01T07:13:52.742Z,6.10
2018-10-01T07:14:52.753Z,6.60
2018-10-01T07:15:52.675Z,4.60
2018-10-01T07:16:52.659Z,6.10
2018-10-01T07:17:52.625Z,6.20
2018-10-01T07:18:52.558Z,6.70
2018-10-01T07:19:52.554Z,6.20
2018-10-01T07:20:52.567Z,6.00
2018-10-01T07:21:52.473Z,7.20
2018-10-01T07:22:52.479Z,5.80
2018-10-01T07:23:52.416Z,6.30
2018-10-01T07:24:52.379Z,5.30
2018-10-01T07:25:52.349Z,5.30
2018-10-01T07:26:52.272Z,5.70
2018-10-01T07:27:52.238Z,5.70
2018-10-01T07:28:52.227Z,7.80
2018-10-01T07:29:52.168Z,5.20
2018-10-01T07:30:52.163Z,6.10
2018-10-01T07:31:52.103Z,6.40
2018-10-01T07:32:52.066Z,5.10
2018-10-01T07:33:52.031Z,6.20
2018-10-01T07:34:52.011Z,5.10
2018-10-01T07:35:51.983Z,5.30
2018-10-01T07:36:51.909Z,5.40
2018-10-01T07:37:51.895Z,5.00
2018-10-01T07:38:51.858Z,4.70
2018-10-01T07:39:51.803Z,6.10
2018-10-01T07:40:51.774Z,5.60
2018-10-01T07:41:51.780Z,5.60
2018-10-01T07:42:51.697Z,5.80
2018-10-01T07:43:51.670Z,3.60
2018-10-01T07:44:51.715Z,6.50
2018-10-01T07:45:51.606Z,4.40
2018-10-01T07:46:51.576Z,5.10
2018-10-01T07:47:51.561Z,5.30
2018-10-01T07:48:51.487Z,4.60
2018-10-01T07:49:51.491Z,4.40
2018-10-01T07:50:51.500Z,3.70
2018-10-01T07:51:51.405Z,4.80
2018-10-01T07:52:51.374Z,4.80
2018-10-01T07:53:51.344Z,4.50
2018-10-01T07:54:51.292Z,4.60
2018-10-01T07:55:51.258Z,3.60
2018-10-01T07:56:51.219Z,5.50
2018-10-01T07:57:51.206Z,4.40
2018-10-01T07:58:51.160Z,4.30
2018-10-01T07:59:51.204Z,4.90
2018-10-01T08:00:51.085Z,5.60
2018-10-01T08:01:51.056Z,5.30
2018-10-01T08:02:51.025Z,4.60
2018-10-01T08:03:50.992Z,5.00
2018-10-01T08:04:50.929Z,6.20
2018-10-01T08:05:50.906Z,4.80
2018-10-01T08:06:50.851Z,3.70
2018-10-01T08:07:50.846Z,4.00
2018-10-01T08:08:50.831Z,4.60
2018-10-01T08:09:50.745Z,5.40
2018-10-01T08:10:50.715Z,4.10
2018-10-01T08:11:50.697Z,5.20
2018-10-01T08:12:50.689Z,4.60
2018-10-01T08:13:50.654Z,5.50
2018-10-01T08:14:50.621Z,5.90
2018-10-01T08:15:50.575Z,5.50
2018-10-01T08:16:50.501Z,6.60
2018-10-01T08:17:50.520Z,4.60
2018-10-01T08:18:50.433Z,6.30
2018-10-01T08:19:50.443Z,6.70
2018-10-01T08:20:50.376Z,4.80
2018-10-01T08:21:50.348Z,6.00
2018-10-01T08:22:50.309Z,4.40
2018-10-01T08:23:50.301Z,4.90
2018-10-01T08:24:50.267Z,4.20
2018-10-01T08:25:50.268Z,7.40
2018-10-01T08:26:50.195Z,5.90
2018-10-01T08:27:50.141Z,3.80
2018-10-01T08:28:50.136Z,5.90
2018-10-01T08:29:50.234Z,5.20
2018-10-01T08:30:50.098Z,4.30
2018-10-01T08:31:50.028Z,4.20
2018-10-01T08:32:49.981Z,4.30
2018-10-01T08:33:49.959Z,6.10
2018-10-01T08:34:49.960Z,4.10
2018-10-01T08:35:49.906Z,5.90
2018-10-01T08:36:49.898Z,4.80
2018-10-01T08:37:49.815Z,5.40
2018-10-01T08:38:49.808Z,5.00
2018-10-01T08:39:49.771Z,4.70
2018-10-01T08:40:49.708Z,4.60
2018-10-01T08:41:49.695Z,3.70
2018-10-01T08:42:49.660Z,5.80
2018-10-01T08:43:49.596Z,4.00
2018-10-01T08:44:49.573Z,4.00
2018-10-01T08:45:49.583Z,4.40
2018-10-01T08:46:49.525Z,5.00
2018-10-01T08:47:49.523Z,4.30
2018-10-01T08:48:49.480Z,4.20
2018-10-01T08:49:49.408Z,5.70
2018-10-01T08:50:49.411Z,5.80
2018-10-01T08:51:49.458Z,4.60
2018-10-01T08:52:49.303Z,4.40
2018-10-01T08:53:49.285Z,5.20
2018-10-01T08:54:49.224Z,4.40
2018-10-01T08:55:49.196Z,3.60
2018-10-01T08:56:49.190Z,5.90
2018-10-01T08:57:49.126Z,3.90
2018-10-01T08:58:49.109Z,3.90
2018-10-01T08:59:49.064Z,3.20
2018-10-01T09:00:49.028Z,3.70
2018-10-01T09:01:49.013Z,4.40
2018-10-01T09:02:48.981Z,3.30
2018-10-01T09:03:48.920Z,5.00
2018-10-01T09:04:48.950Z,5.10
2018-10-01T09:05:48.855Z,4.90
2018-10-01T09:06:48.876Z,3.40
2018-10-01T09:07:48.864Z,4.70
2018-10-01T09:08:48.749Z,4.40
2018-10-01T09:09:48.743Z,4.80
2018-10-01T09:10:48.689Z,4.20
2018-10-01T09:11:48.651Z,3.10
2018-10-01T09:12:48.649Z,3.30
2018-10-01T09:13:48.620Z,3.10
2018-10-01T09:14:48.573Z,5.40
2018-10-01T09:15:48.519Z,3.30
2018-10-01T09:16:48.521Z,4.30
2018-10-01T09:17:48.469Z,3.00
2018-10-01T09:18:48.435Z,3.50
2018-10-01T09:19:48.402Z,2.40
2018-10-01T09:20:48.336Z,2.90
2018-10-01T09:21:48.306Z,2.90
2018-10-01T09:22:48.284Z,4.30
2018-10-01T09:23:48.268Z,3.00
2018-10-01T09:24:48.221Z,4.80
2018-10-01T09:25:48.166Z,4.40
2018-10-01T09:26:48.131Z,3.40
2018-10-01T09:27:48.097Z,3.80
2018-10-01T09:28:48.106Z,3.70
2018-10-01T09:29:48.054Z,4.00
2018-10-01T09:30:47.999Z,3.50
2018-10-01T09:31:47.967Z,3.30
2018-10-01T09:32:47.921Z,4.20
2018-10-01T09:33:47.880Z,3.40
2018-10-01T09:34:47.921Z,3.40
2018-10-01T09:35:47.838Z,4.50
2018-10-01T09:36:47.816Z,4.80
2018-10-01T09:37:47.774Z,4.40
2018-10-01T09:38:47.743Z,5.10
2018-10-01T09:39:47.724Z,4.40
2018-10-01T09:40:47.644Z,4.00
2018-10-01T09:41:47.635Z,5.30
2018-10-01T09:42:47.593Z,4.00
2018-10-01T09:43:47.567Z,4.70
2018-10-01T09:44:47.519Z,3.90
2018-10-01T09:45:47.513Z,4.40
2018-10-01T09:46:47.462Z,6.70
2018-10-01T09:47:47.437Z,5.60
2018-10-01T09:48:47.409Z,4.60
2018-10-01T09:49:47.361Z,4.40
2018-10-01T09:50:47.412Z,3.40
2018-10-01T09:51:47.295Z,4.40
2018-10-01T09:52:47.279Z,3.90
2018-10-01T09:53:47.246Z,3.90
2018-10-01T09:54:47.190Z,4.30
2018-10-01T09:55:47.197Z,4.30
2018-10-01T09:56:47.124Z,3.80
2018-10-01T09:57:47.092Z,4.60
2018-10-01T09:58:47.099Z,3.90
2018-10-01T09:59:47.025Z,5.00
2018-10-01T10:00:46.996Z,4.10
2018-10-01T10:01:46.990Z,5.30
2018-10-01T10:02:46.931Z,4.60
2018-10-01T10:03:46.890Z,3.80
2018-10-01T10:04:46.963Z,4.20
2018-10-01T10:05:46.818Z,4.70
2018-10-01T10:06:46.816Z,3.80
2018-10-01T10:07:46.744Z,3.80
2018-10-01T10:08:46.748Z,5.50
2018-10-01T10:09:46.680Z,6.20
2018-10-01T10:10:46.649Z,5.10
2018-10-01T10:11:46.674Z,5.80
2018-10-01T10:12:46.582Z,4.10
2018-10-01T10:13:46.556Z,5.30
2018-10-01T10:14:46.518Z,5.90
2018-10-01T10:15:46.490Z,4.40
2018-10-01T10:16:46.566Z,5.20
2018-10-01T10:17:46.451Z,4.00
2018-10-01T10:18:46.370Z,4.00
2018-10-01T10:19:46.343Z,3.70
2018-10-01T10:20:46.306Z,4.90
2018-10-01T10:21:46.268Z,5.10
2018-10-01T10:22:46.244Z,3.70
2018-10-01T10:23:46.249Z,4.30
2018-10-01T10:24:46.158Z,4.30
2018-10-01T10:25:46.134Z,6.70
2018-10-01T10:26:46.088Z,5.50
2018-10-01T10:27:46.065Z,5.80
2018-10-01T10:28:46.037Z,4.80
2018-10-01T10:29:46.020Z,6.00
2018-10-01T10:30:45.952Z,4.70
2018-10-01T10:31:45.931Z,3.10
2018-10-01T10:32:45.874Z,4.50
2018-10-01T10:33:45.875Z,5.50
2018-10-01T10:34:45.813Z,4.90
2018-10-01T10:35:45.775Z,4.70
2018-10-01T10:36:45.722Z,5.00
2018-10-01T10:37:45.681Z,4.60
2018-10-01T10:38:45.689Z,4.80
2018-10-01T10:39:45.619Z,5.50
2018-10-01T10:40:45.600Z,3.50
2018-10-01T10:41:45.625Z,5.00
2018-10-01T10:42:45.517Z,3.40
2018-10-01T10:43:45.506Z,5.30
2018-10-01T10:44:45.420Z,3.40
2018-10-01T10:45:45.392Z,4.30
2018-10-01T10:46:45.341Z,5.60
2018-10-01T10:47:45.322Z,4.90
2018-10-01T10:48:45.262Z,4.20
2018-10-01T10:49:45.265Z,5.50
2018-10-01T10:50:45.193Z,4.90
2018-10-01T10:51:45.158Z,5.70
2018-10-01T10:52:45.125Z,5.00
2018-10-01T10:53:45.089Z,5.10
2018-10-01T10:54:45.105Z,4.80
2018-10-01T10:55:45.047Z,5.00
2018-10-01T10:56:44.969Z,6.80
2018-10-01T10:57:44.933Z,5.70
2018-10-01T10:58:44.911Z,5.00
2018-10-01T10:59:44.855Z,4.40
2018-10-01T11:00:44.868Z,4.80
2018-10-01T11:01:44.793Z,4.50
2018-10-01T11:02:44.744Z,4.70
2018-10-01T11:03:44.735Z,4.20
2018-10-01T11:04:44.692Z,4.50
2018-10-01T11:05:44.671Z,4.40
2018-10-01T11:06:44.622Z,4.20
2018-10-01T11:07:44.576Z,4.20
2018-10-01T11:08:44.523Z,4.10
2018-10-01T11:09:44.531Z,4.10
2018-10-01T11:10:44.477Z,3.50
2018-10-01T11:11:44.469Z,3.70
2018-10-01T11:12:44.390Z,3.90
2018-10-01T11:13:44.392Z,4.00
2018-10-01T11:14:44.483Z,2.90
2018-10-01T11:15:44.309Z,6.40
2018-10-01T11:16:44.327Z,3.50
2018-10-01T11:17:44.252Z,2.80
2018-10-01T11:18:44.342Z,3.20
2018-10-01T11:19:44.193Z,3.80
2018-10-01T11:20:44.106Z,3.80
2018-10-01T11:21:44.239Z,2.80
2018-10-01T11:22:44.082Z,3.40
2018-10-01T11:23:44.003Z,2.80
2018-10-01T11:24:43.959Z,3.10
2018-10-01T11:25:43.954Z,4.20
2018-10-01T11:26:43.917Z,3.50
2018-10-01T11:27:43.878Z,4.30
2018-10-01T11:28:43.837Z,2.60
2018-10-01T11:29:43.778Z,3.50
2018-10-01T11:30:43.733Z,3.70
2018-10-01T11:31:43.820Z,2.80
2018-10-01T11:32:43.677Z,3.30
2018-10-01T11:33:43.704Z,3.60
2018-10-01T11:34:43.630Z,3.60
2018-10-01T11:35:43.555Z,3.30
2018-10-01T11:36:43.515Z,4.80
2018-10-01T11:37:43.519Z,3.50
2018-10-01T11:38:43.453Z,3.20
2018-10-01T11:39:43.457Z,9.20
2018-10-01T11:40:43.361Z,3.00
2018-10-01T11:41:43.355Z,4.20
2018-10-01T11:42:43.294Z,2.40
2018-10-01T11:43:43.257Z,2.80
2018-10-01T11:44:43.268Z,3.30
2018-10-01T11:45:43.233Z,1.30
2018-10-01T11:46:43.147Z,2.60
2018-10-01T11:47:43.135Z,1.80
2018-10-01T11:48:43.072Z,1.70
2018-10-01T11:49:43.035Z,3.60
2018-10-01T11:50:43.089Z,2.90
2018-10-01T11:51:43.017Z,3.50
2018-10-01T11:52:42.925Z,2.60
2018-10-01T11:53:42.914Z,3.00
2018-10-01T11:54:42.848Z,3.70
2018-10-01T11:55:42.808Z,3.10
2018-10-01T11:56:42.778Z,2.90
2018-10-01T11:57:42.810Z,3.20
2018-10-01T11:58:42.702Z,3.00
2018-10-01T11:59:42.687Z,6.00
2018-10-01T12:00:42.617Z,4.40
2018-10-01T12:01:42.580Z,4.00
2018-10-01T12:02:42.543Z,5.10
2018-10-01T12:03:42.648Z,3.80
2018-10-01T12:04:42.505Z,3.80
2018-10-01T12:05:42.423Z,4.50
2018-10-01T12:06:42.390Z,3.90
2018-10-01T12:07:42.350Z,4.10
2018-10-01T12:08:42.318Z,4.20
2018-10-01T12:09:42.401Z,4.10
2018-10-01T12:10:42.263Z,4.20
2018-10-01T12:11:42.197Z,2.90
2018-10-01T12:12:42.184Z,4.30
2018-10-01T12:13:42.119Z,4.90
2018-10-01T12:14:42.075Z,5.00
2018-10-01T12:15:42.048Z,4.80
2018-10-01T12:16:42.014Z,5.90
2018-10-01T12:17:41.964Z,4.30
2018-10-01T12:18:41.944Z,4.50
2018-10-01T12:19:41.885Z,4.80
2018-10-01T12:20:41.867Z,5.50
2018-10-01T12:21:41.944Z,5.00
2018-10-01T12:22:41.773Z,3.90
2018-10-01T12:23:41.843Z,4.80
2018-10-01T12:24:41.687Z,5.20
2018-10-01T12:25:41.700Z,5.50
2018-10-01T12:26:41.606Z,6.50
2018-10-01T12:27:41.687Z,8.10
2018-10-01T12:28:41.551Z,4.90
2018-10-01T12:29:41.502Z,8.60
2018-10-01T12:30:41.519Z,8.50
2018-10-01T12:31:41.442Z,7.90
2018-10-01T12:32:41.377Z,6.80
2018-10-01T12:33:41.400Z,8.00
2018-10-01T12:34:41.451Z,6.10
2018-10-01T12:35:41.267Z,10.00
2018-10-01T12:36:41.261Z,9.00
2018-10-01T12:37:41.222Z,8.00
2018-10-01T12:38:41.167Z,8.50
2018-10-01T12:39:41.202Z,7.90
2018-10-01T12:40:41.099Z,7.70
2018-10-01T12:41:41.119Z,7.50
2018-10-01T12:42:41.075Z,7.10
2018-10-01T12:43:40.991Z,7.20
2018-10-01T12:44:40.958Z,5.70
2018-10-01T12:45:40.997Z,6.70
2018-10-01T12:46:40.911Z,7.30
2018-10-01T12:47:40.888Z,6.30
2018-10-01T12:48:40.831Z,7.60
2018-10-01T12:49:40.783Z,8.10
2018-10-01T12:50:40.749Z,6.90
2018-10-01T12:51:40.762Z,7.60
2018-10-01T12:52:40.678Z,8.70
2018-10-01T12:53:40.656Z,7.30
2018-10-01T12:54:40.619Z,7.70
2018-10-01T12:55:40.560Z,7.40
2018-10-01T12:56:40.540Z,6.00
2018-10-01T12:57:40.555Z,7.60
2018-10-01T12:58:40.462Z,7.90
2018-10-01T12:59:40.521Z,6.60
2018-10-01T13:00:40.399Z,8.30
2018-10-01T13:01:40.330Z,8.60
2018-10-01T13:02:40.306Z,7.30
2018-10-01T13:03:40.299Z,7.10
2018-10-01T13:04:40.236Z,7.10
2018-10-01T13:05:40.184Z,8.40
2018-10-01T13:06:40.170Z,8.90